TALO2: Illinois River, Tahlequah, OK

                                SHEF ID:       TALO2     Illinois River near Tahlequah, O
STATION TYPE:
Regulating: Stage = 11.00, Flow = 10168

PRECIP STAGE STAGE(2) RIV-FLOW BAT-LOAD
in ft ft cfs volt
Ccp-Rev Ccp-Rev Ccp-Rev Ccp-Rev Ccp-Rev
(America/Chicago)
04/30 00:00 ---- 9.13 ---- 6149 12.09
04/30 01:00 ---- 9.17 ---- 6230 12.09
04/30 02:00 ---- 9.11 ---- 6109 12.01
04/30 03:00 ---- 9.05 ---- 5989 12.09
04/30 04:00 ---- 8.98 ---- 5850 12.01
04/30 05:00 ---- 8.92 ---- 5731 11.86
04/30 06:00 ---- 8.83 ---- 5554 11.93
04/30 07:00 ---- 8.73 ---- 5357 11.93
04/30 08:00 ---- 8.65 ---- 5201 11.93
04/30 09:00 ---- 8.58 ---- 5065 12.33
04/30 10:00 ---- 8.51 ---- 4929 12.81
04/30 11:00 ---- 8.45 ---- 4813 13.21
04/30 12:00 ---- 8.38 ---- 4679 12.97
04/30 13:00 ---- 8.34 ---- 4603 13.05
04/30 14:00 ---- 8.28 ---- 4488 13.05
04/30 15:00 ---- 8.24 ---- 4412 12.97
04/30 16:00 ---- 8.18 ---- 4298 13.05
04/30 17:00 ---- 8.14 ---- 4222 12.81
04/30 18:00 ---- 8.09 ---- 4127 12.81
04/30 19:00 ---- 8.05 ---- 4052 12.73
04/30 20:00 ---- 8.01 ---- 3977 12.65
04/30 21:00 ---- 7.97 ---- 3902 12.33
04/30 22:00 ---- 7.93 ---- 3827 12.33
04/30 23:00 ---- ---- ---- ---- ----
Data processed at Fri 01May2026 04:33 GMT

NOTICE: If you are parsing this page

Please convert to using our Data API. Starting early 2026 we will be migrating to: https://water.usace.army.mil with modern pages rendered in JavaScript. When this migration completes you will no longer be able to scrape this page! CWMSDataAPI (CDA)

Timeseries IDs (TSIDs)

TSIDs used from left to right in the data table
TAHL.Precip-Inc.Total.1Hour.0.Ccp-Rev
TAHL.Stage.Inst.1Hour.0.Ccp-Rev
TAHL.Stage-Alt.Inst.1Hour.0.Ccp-Rev
TAHL.Flow.Inst.1Hour.0.Ccp-Rev
TAHL.Volt-Battery Load.Inst.1Hour.0.Ccp-Rev

                            

All information presented herein is the property of the government of the United States of America and may be revised or deleted at any time without prior notice. Dissemination of this information without the expressed written consent of the Public Affairs Office, Tulsa District U.S. Army Corps of Engineers is strictly prohibited. These data are gathered electronically and, as presented, have NOT undergone any form of quality control. These data are NOT guaranteed to be valid or correct.